Xin Yan Tian — BPBA — position and weather

sailwx.info

Track history (hours):
 
Tides and Currents Weather Stations Pressure Air Temp Water Temp Dewpoint Dewpoint Depression Visibility Wind Speed Wind Dir Waves Ship Positions

Xin Yan Tian

Last reported at 2017-Oct-22 12:00 UTC. Time now 2017-Oct-22 19:09 UTC.
Position S 30°48' E 153°24'.

Length 279 m; draft 12.6 m.

Type: Cargo ship. MMSI: 413064000.

Wind from 220 at 21 knots

Barometer 1016.6 mb
Air temperature 19.0 ° C

Date/timePositionNaut miles runAvg speedWind from/ knotsBaromVisibWave heightAir tempDewpointWater temp
2017-Oct-22 12:00S 30°48' E 153°24'9515.8 220 / 211016.6 19.0
2017-Oct-22 06:00S 32°18' E 152°48'415.7 240 / 171013.5 18.5
2017-Oct-22 05:43S 32°22' E 152°48'417.7
2017-Oct-22 05:30S 32°26' E 152°46'917.3
2017-Oct-22 05:00S 32°34' E 152°42'817.1
2017-Oct-22 04:31S 32°41' E 152°36'816.9
2017-Oct-22 04:01S 32°48' E 152°31'816.9
2017-Oct-22 03:30S 32°55' E 152°25'916.5
2017-Oct-22 02:56S 33°03' E 152°19'15817.6
2017-Oct-21 18:00S 35°24' E 150°54'11819.6 210 / 291016.2 15.0
2017-Oct-21 12:00S 37°18' E 150°18'11218.7 200 / 271019.2 13.5
2017-Oct-21 06:00S 38°36' E 148°36'11118.5 230 / 191020.3 15.6
2017-Oct-21 00:00S 39°18' E 146°24'10317.2 280 / 141024.8 12.7
2017-Oct-20 18:00S 38°18' E 144°36'1513.0 100 / 331027.1 12.0
2017-Oct-20 16:49S 38°14' E 144°55'617.6
2017-Oct-20 16:30S 38°08' E 144°55'918.1
2017-Oct-20 16:01S 37°59' E 144°55'611.7
2017-Oct-20 15:29S 37°53' E 144°56'3 7.3
2017-Oct-20 15:01S 37°50' E 144°54'1 2.8
2017-Oct-20 14:30S 37°49' E 144°55'1 0.4
2017-Oct-20 12:00S 37°48' E 144°54'0 0.0 250 / 41030.2 13.0
2017-Oct-20 06:00S 37°48' E 144°54'0 0.0 240 / 81029.1 15.3
2017-Oct-20 00:00S 37°48' E 144°54'0 0.0 240 / 81029.4 15.2
2017-Oct-19 12:00S 37°48' E 144°54'0 0.0 310 / 81025.2 14.5
2017-Oct-19 06:00S 37°48' E 144°54'0 0.0 290 / 81018.0 20.6
2017-Oct-19 00:00S 37°48' E 144°54'1 0.3 210 / 21018.0 18.5
2017-Oct-18 19:50S 37°49' E 144°55'2 4.7
2017-Oct-18 19:25S 37°51' E 144°55'410.2
2017-Oct-18 19:00S 37°55' E 144°56'815.6
2017-Oct-18 18:30S 38°03' E 144°55'5410.6
2017-Oct-18 13:24S 38°53' E 145°23'918.9
2017-Oct-18 12:56S 38°57' E 145°32'918.9
2017-Oct-18 12:29S 39°02' E 145°41'1119.0
2017-Oct-18 11:53S 39°08' E 145°53'918.7
2017-Oct-18 11:26S 39°12' E 146°03'919.2
2017-Oct-18 10:57S 39°12' E 146°15'919.1
2017-Oct-18 10:30S 39°10' E 146°26'1119.6
2017-Oct-18 09:57S 39°07' E 146°39'1819.6
2017-Oct-18 09:01S 39°01' E 147°01'018.7
2017-Oct-18 09:00S 39°01' E 147°02'3019.9
2017-Oct-18 07:30S 38°52' E 147°39'1120.1
2017-Oct-18 06:56S 38°48' E 147°53'920.1
2017-Oct-18 06:29S 38°45' E 148°03'715.1
2017-Oct-18 06:00S 38°42' E 148°12'441.3 060 / 251020.8 19.4
2017-Oct-18 05:53S 38°41' E 148°17'1219.5
2017-Oct-18 05:16S 38°33' E 148°30'619.4
2017-Oct-18 04:56S 38°29' E 148°36'919.5
2017-Oct-18 04:29S 38°24' E 148°45'1119.9
2017-Oct-18 03:55S 38°18' E 148°57'919.9
2017-Oct-18 03:28S 38°12' E 149°06'1019.8
2017-Oct-18 02:59S 38°07' E 149°16'1119.9
2017-Oct-18 02:24S 38°01' E 149°29'819.2
2017-Oct-18 01:59S 37°57' E 149°37'1019.8
2017-Oct-18 01:30S 37°51' E 149°47'1019.5
2017-Oct-18 01:00S 37°46' E 149°58'2019.4
2017-Oct-18 00:00S 37°30' E 150°12'12320.6 010 / 191027.5 20.9
2017-Oct-17 18:00S 35°30' E 150°48'9215.4 040 / 231028.0 17.9
2017-Oct-17 12:00S 34°00' E 151°12'0 0.0 190 / 21030.1 20.3
2017-Oct-17 06:00S 34°00' E 151°12'0 0.0 160 / 41028.1 23.5
2017-Oct-17 00:00S 34°00' E 151°12'0 0.0 180 / 21029.4 23.9
2017-Oct-16 18:00S 34°00' E 151°12'0 0.0 050 / 41028.4 18.4
2017-Oct-16 06:00S 34°00' E 151°12'0 0.0 170 / 61027.5 21.2
2017-Oct-15 18:00S 34°00' E 151°12'12 1.2 160 / 21026.8 18.0
2017-Oct-15 08:15S 33°58' E 151°26'313.9
2017-Oct-15 08:00S 33°55' E 151°29'816.9
2017-Oct-15 07:30S 33°48' E 151°35'1019.1
2017-Oct-15 06:58S 33°40' E 151°43'1919.4
2017-Oct-15 06:00S 33°24' E 151°54'716.9 040 / 331024.7 20.1
2017-Oct-15 05:36S 33°20' E 152°00'620.8
2017-Oct-15 05:18S 33°15' E 152°05'620.8
2017-Oct-15 05:00S 33°10' E 152°09'1020.7
2017-Oct-15 04:30S 33°02' E 152°17'1020.7
2017-Oct-15 04:01S 32°54' E 152°24'1121.1
2017-Oct-15 03:30S 32°45' E 152°32'1020.9
2017-Oct-15 03:01S 32°37' E 152°39'1020.5
2017-Oct-15 02:31S 32°28' E 152°46'4919.6
2017-Oct-15 00:00S 31°42' E 153°06'18120.7 030 / 351025.0 20.8
2017-Oct-14 15:14S 28°44' E 153°46'521.4
2017-Oct-14 15:00S 28°39' E 153°45'1021.4
2017-Oct-14 14:30S 28°29' E 153°45'1121.7
2017-Oct-14 14:00S 28°18' E 153°45'1121.4
2017-Oct-14 13:30S 28°07' E 153°45'1121.5
2017-Oct-14 13:01S 27°57' E 153°45'1121.2
2017-Oct-14 12:31S 27°46' E 153°45'1020.5
2017-Oct-14 12:00S 27°36' E 153°45'1020.1
2017-Oct-14 11:31S 27°26' E 153°45'1019.7
2017-Oct-14 11:00S 27°16' E 153°45'1020.1
2017-Oct-14 10:30S 27°06' E 153°45'1020.2
2017-Oct-14 10:00S 26°56' E 153°46'47021.3
2017-Oct-13 12:00S 19°06' E 153°42'53222.2 010 / 411013.9 24.8
2017-Oct-12 12:00S 10°24' E 151°54'   350 / 451012.6 27.5
Track history (hours):
 
Tides and Currents Weather Stations Pressure Air Temp Water Temp Dewpoint Dewpoint Depression Visibility Wind Speed Wind Dir Waves Ship Positions

Xin Yan Tian

Last reported at 2017-Oct-22 12:00 UTC. Time now 2017-Oct-22 19:09 UTC.
Position S 30°48' E 153°24'.

Length 279 m; draft 12.6 m.

Type: Cargo ship. MMSI: 413064000.

Wind from 220 at 21 knots

Barometer 1016.6 mb
Air temperature 19.0 ° C

Date/timePositionNaut miles runAvg speedWind from/ knotsBaromVisibWave heightAir tempDewpointWater temp
2017-Oct-22 12:00S 30°48' E 153°24'9515.8 220 / 211016.6 19.0
2017-Oct-22 06:00S 32°18' E 152°48'415.7 240 / 171013.5 18.5
2017-Oct-22 05:43S 32°22' E 152°48'417.7
2017-Oct-22 05:30S 32°26' E 152°46'917.3
2017-Oct-22 05:00S 32°34' E 152°42'817.1
2017-Oct-22 04:31S 32°41' E 152°36'816.9
2017-Oct-22 04:01S 32°48' E 152°31'816.9
2017-Oct-22 03:30S 32°55' E 152°25'916.5
2017-Oct-22 02:56S 33°03' E 152°19'15817.6
2017-Oct-21 18:00S 35°24' E 150°54'11819.6 210 / 291016.2 15.0
2017-Oct-21 12:00S 37°18' E 150°18'11218.7 200 / 271019.2 13.5
2017-Oct-21 06:00S 38°36' E 148°36'11118.5 230 / 191020.3 15.6
2017-Oct-21 00:00S 39°18' E 146°24'10317.2 280 / 141024.8 12.7
2017-Oct-20 18:00S 38°18' E 144°36'1513.0 100 / 331027.1 12.0
2017-Oct-20 16:49S 38°14' E 144°55'617.6
2017-Oct-20 16:30S 38°08' E 144°55'918.1
2017-Oct-20 16:01S 37°59' E 144°55'611.7
2017-Oct-20 15:29S 37°53' E 144°56'3 7.3
2017-Oct-20 15:01S 37°50' E 144°54'1 2.8
2017-Oct-20 14:30S 37°49' E 144°55'1 0.4
2017-Oct-20 12:00S 37°48' E 144°54'0 0.0 250 / 41030.2 13.0
2017-Oct-20 06:00S 37°48' E 144°54'0 0.0 240 / 81029.1 15.3
2017-Oct-20 00:00S 37°48' E 144°54'0 0.0 240 / 81029.4 15.2
2017-Oct-19 12:00S 37°48' E 144°54'0 0.0 310 / 81025.2 14.5
2017-Oct-19 06:00S 37°48' E 144°54'0 0.0 290 / 81018.0 20.6
2017-Oct-19 00:00S 37°48' E 144°54'1 0.3 210 / 21018.0 18.5
2017-Oct-18 19:50S 37°49' E 144°55'2 4.7
2017-Oct-18 19:25S 37°51' E 144°55'410.2
2017-Oct-18 19:00S 37°55' E 144°56'815.6
2017-Oct-18 18:30S 38°03' E 144°55'5410.6
2017-Oct-18 13:24S 38°53' E 145°23'918.9
2017-Oct-18 12:56S 38°57' E 145°32'918.9
2017-Oct-18 12:29S 39°02' E 145°41'1119.0
2017-Oct-18 11:53S 39°08' E 145°53'918.7
2017-Oct-18 11:26S 39°12' E 146°03'919.2
2017-Oct-18 10:57S 39°12' E 146°15'919.1
2017-Oct-18 10:30S 39°10' E 146°26'1119.6
2017-Oct-18 09:57S 39°07' E 146°39'1819.6
2017-Oct-18 09:01S 39°01' E 147°01'018.7
2017-Oct-18 09:00S 39°01' E 147°02'3019.9
2017-Oct-18 07:30S 38°52' E 147°39'1120.1
2017-Oct-18 06:56S 38°48' E 147°53'920.1
2017-Oct-18 06:29S 38°45' E 148°03'715.1
2017-Oct-18 06:00S 38°42' E 148°12'441.3 060 / 251020.8 19.4
2017-Oct-18 05:53S 38°41' E 148°17'1219.5
2017-Oct-18 05:16S 38°33' E 148°30'619.4
2017-Oct-18 04:56S 38°29' E 148°36'919.5
2017-Oct-18 04:29S 38°24' E 148°45'1119.9
2017-Oct-18 03:55S 38°18' E 148°57'919.9
2017-Oct-18 03:28S 38°12' E 149°06'1019.8
2017-Oct-18 02:59S 38°07' E 149°16'1119.9
2017-Oct-18 02:24S 38°01' E 149°29'819.2
2017-Oct-18 01:59S 37°57' E 149°37'1019.8
2017-Oct-18 01:30S 37°51' E 149°47'1019.5
2017-Oct-18 01:00S 37°46' E 149°58'2019.4
2017-Oct-18 00:00S 37°30' E 150°12'12320.6 010 / 191027.5 20.9
2017-Oct-17 18:00S 35°30' E 150°48'9215.4 040 / 231028.0 17.9
2017-Oct-17 12:00S 34°00' E 151°12'0 0.0 190 / 21030.1 20.3
2017-Oct-17 06:00S 34°00' E 151°12'0 0.0 160 / 41028.1 23.5
2017-Oct-17 00:00S 34°00' E 151°12'0 0.0 180 / 21029.4 23.9
2017-Oct-16 18:00S 34°00' E 151°12'0 0.0 050 / 41028.4 18.4
2017-Oct-16 06:00S 34°00' E 151°12'0 0.0 170 / 61027.5 21.2
2017-Oct-15 18:00S 34°00' E 151°12'12 1.2 160 / 21026.8 18.0
2017-Oct-15 08:15S 33°58' E 151°26'313.9
2017-Oct-15 08:00S 33°55' E 151°29'816.9
2017-Oct-15 07:30S 33°48' E 151°35'1019.1
2017-Oct-15 06:58S 33°40' E 151°43'1919.4
2017-Oct-15 06:00S 33°24' E 151°54'716.9 040 / 331024.7 20.1
2017-Oct-15 05:36S 33°20' E 152°00'620.8
2017-Oct-15 05:18S 33°15' E 152°05'620.8
2017-Oct-15 05:00S 33°10' E 152°09'1020.7
2017-Oct-15 04:30S 33°02' E 152°17'1020.7
2017-Oct-15 04:01S 32°54' E 152°24'1121.1
2017-Oct-15 03:30S 32°45' E 152°32'1020.9
2017-Oct-15 03:01S 32°37' E 152°39'1020.5
2017-Oct-15 02:31S 32°28' E 152°46'4919.6
2017-Oct-15 00:00S 31°42' E 153°06'18120.7 030 / 351025.0 20.8
2017-Oct-14 15:14S 28°44' E 153°46'521.4
2017-Oct-14 15:00S 28°39' E 153°45'1021.4
2017-Oct-14 14:30S 28°29' E 153°45'1121.7
2017-Oct-14 14:00S 28°18' E 153°45'1121.4
2017-Oct-14 13:30S 28°07' E 153°45'1121.5
2017-Oct-14 13:01S 27°57' E 153°45'1121.2
2017-Oct-14 12:31S 27°46' E 153°45'1020.5
2017-Oct-14 12:00S 27°36' E 153°45'1020.1
2017-Oct-14 11:31S 27°26' E 153°45'1019.7
2017-Oct-14 11:00S 27°16' E 153°45'1020.1
2017-Oct-14 10:30S 27°06' E 153°45'1020.2
2017-Oct-14 10:00S 26°56' E 153°46'47021.3
2017-Oct-13 12:00S 19°06' E 153°42'53222.2 010 / 411013.9 24.8
2017-Oct-12 12:00S 10°24' E 151°54'   350 / 451012.6 27.5

Dump ship's entire track history